sensor_id;sensor_type;location;lat;lon;timestamp;P1;durP1;ratioP1;P2;durP2;ratioP2
43883;SDS011;29544;52.018;5.810;2023-03-01T00:01:00;1.23;;;0.80;;
43883;SDS011;29544;52.018;5.810;2023-03-01T00:03:30;1.50;;;0.85;;
43883;SDS011;29544;52.018;5.810;2023-03-01T00:05:57;1.42;;;0.90;;
43883;SDS011;29544;52.018;5.810;2023-03-01T00:08:22;2.13;;;1.17;;
43883;SDS011;29544;52.018;5.810;2023-03-01T00:10:48;5.07;;;1.20;;
43883;SDS011;29544;52.018;5.810;2023-03-01T00:13:14;0.60;;;0.60;;
43883;SDS011;29544;52.018;5.810;2023-03-01T00:15:39;0.80;;;0.80;;
43883;SDS011;29544;52.018;5.810;2023-03-01T00:18:09;1.65;;;0.90;;
43883;SDS011;29544;52.018;5.810;2023-03-01T00:20:34;1.83;;;0.87;;
43883;SDS011;29544;52.018;5.810;2023-03-01T00:23:00;1.27;;;0.83;;
43883;SDS011;29544;52.018;5.810;2023-03-01T00:25:25;2.30;;;0.80;;
43883;SDS011;29544;52.018;5.810;2023-03-01T00:27:51;2.53;;;1.20;;
43883;SDS011;29544;52.018;5.810;2023-03-01T00:30:16;1.23;;;0.90;;
43883;SDS011;29544;52.018;5.810;2023-03-01T00:32:42;1.83;;;0.83;;
43883;SDS011;29544;52.018;5.810;2023-03-01T00:35:08;2.17;;;1.20;;
43883;SDS011;29544;52.018;5.810;2023-03-01T00:37:33;1.97;;;1.00;;
43883;SDS011;29544;52.018;5.810;2023-03-01T00:39:59;1.40;;;1.20;;
43883;SDS011;29544;52.018;5.810;2023-03-01T00:42:24;1.63;;;0.80;;
43883;SDS011;29544;52.018;5.810;2023-03-01T00:44:50;1.60;;;0.93;;
43883;SDS011;29544;52.018;5.810;2023-03-01T00:47:15;1.33;;;0.83;;
43883;SDS011;29544;52.018;5.810;2023-03-01T00:49:41;1.97;;;0.90;;
43883;SDS011;29544;52.018;5.810;2023-03-01T00:52:06;1.17;;;0.90;;
43883;SDS011;29544;52.018;5.810;2023-03-01T00:54:32;1.43;;;0.97;;
43883;SDS011;29544;52.018;5.810;2023-03-01T00:56:57;2.17;;;1.07;;
43883;SDS011;29544;52.018;5.810;2023-03-01T00:59:23;3.93;;;1.50;;
43883;SDS011;29544;52.018;5.810;2023-03-01T01:01:48;2.27;;;1.30;;
43883;SDS011;29544;52.018;5.810;2023-03-01T01:04:14;2.00;;;1.10;;
43883;SDS011;29544;52.018;5.810;2023-03-01T01:06:44;1.47;;;1.10;;
43883;SDS011;29544;52.018;5.810;2023-03-01T01:09:11;2.28;;;0.88;;
43883;SDS011;29544;52.018;5.810;2023-03-01T01:11:42;2.05;;;1.20;;
43883;SDS011;29544;52.018;5.810;2023-03-01T01:14:12;1.25;;;1.00;;
43883;SDS011;29544;52.018;5.810;2023-03-01T01:16:38;1.63;;;1.00;;
43883;SDS011;29544;52.018;5.810;2023-03-01T01:19:04;1.40;;;0.80;;
43883;SDS011;29544;52.018;5.810;2023-03-01T01:21:30;1.95;;;1.13;;
43883;SDS011;29544;52.018;5.810;2023-03-01T01:23:56;1.50;;;0.90;;
43883;SDS011;29544;52.018;5.810;2023-03-01T01:26:23;1.00;;;0.90;;
43883;SDS011;29544;52.018;5.810;2023-03-01T01:28:53;1.67;;;1.17;;
43883;SDS011;29544;52.018;5.810;2023-03-01T01:31:19;1.77;;;1.15;;
43883;SDS011;29544;52.018;5.810;2023-03-01T01:33:45;1.05;;;0.80;;
43883;SDS011;29544;52.018;5.810;2023-03-01T01:36:11;1.23;;;0.90;;
43883;SDS011;29544;52.018;5.810;2023-03-01T01:38:37;2.00;;;1.00;;
43883;SDS011;29544;52.018;5.810;2023-03-01T01:41:04;1.83;;;1.25;;
43883;SDS011;29544;52.018;5.810;2023-03-01T01:43:36;1.45;;;0.90;;
43883;SDS011;29544;52.018;5.810;2023-03-01T01:48:49;2.28;;;1.10;;
43883;SDS011;29544;52.018;5.810;2023-03-01T01:51:23;1.60;;;1.00;;
43883;SDS011;29544;52.018;5.810;2023-03-01T01:53:55;1.30;;;1.00;;
43883;SDS011;29544;52.018;5.810;2023-03-01T01:56:25;1.23;;;1.00;;
43883;SDS011;29544;52.018;5.810;2023-03-01T01:58:53;1.00;;;0.82;;
43883;SDS011;29544;52.018;5.810;2023-03-01T02:03:45;1.20;;;0.93;;
43883;SDS011;29544;52.018;5.810;2023-03-01T02:08:38;2.13;;;1.20;;
43883;SDS011;29544;52.018;5.810;2023-03-01T02:11:07;2.47;;;1.20;;
43883;SDS011;29544;52.018;5.810;2023-03-01T02:13:33;1.23;;;0.95;;
43883;SDS011;29544;52.018;5.810;2023-03-01T02:16:02;1.52;;;1.13;;
43883;SDS011;29544;52.018;5.810;2023-03-01T02:18:33;1.90;;;1.10;;
43883;SDS011;29544;52.018;5.810;2023-03-01T02:23:38;2.20;;;1.52;;
43883;SDS011;29544;52.018;5.810;2023-03-01T02:28:38;2.08;;;1.08;;
43883;SDS011;29544;52.018;5.810;2023-03-01T02:31:08;2.05;;;1.10;;
43883;SDS011;29544;52.018;5.810;2023-03-01T02:33:54;1.80;;;1.10;;
43883;SDS011;29544;52.018;5.810;2023-03-01T02:36:29;1.90;;;1.40;;
43883;SDS011;29544;52.018;5.810;2023-03-01T02:38:58;1.77;;;1.23;;
43883;SDS011;29544;52.018;5.810;2023-03-01T02:41:26;1.30;;;1.10;;
43883;SDS011;29544;52.018;5.810;2023-03-01T02:43:56;2.20;;;1.25;;
43883;SDS011;29544;52.018;5.810;2023-03-01T02:46:24;1.13;;;0.85;;
43883;SDS011;29544;52.018;5.810;2023-03-01T02:48:51;1.83;;;1.25;;
43883;SDS011;29544;52.018;5.810;2023-03-01T02:54:17;2.33;;;1.08;;
43883;SDS011;29544;52.018;5.810;2023-03-01T02:56:53;4.53;;;1.67;;
43883;SDS011;29544;52.018;5.810;2023-03-01T02:59:20;1.88;;;1.45;;
43883;SDS011;29544;52.018;5.810;2023-03-01T03:01:49;1.95;;;1.25;;
43883;SDS011;29544;52.018;5.810;2023-03-01T03:04:15;2.20;;;1.30;;
43883;SDS011;29544;52.018;5.810;2023-03-01T03:06:45;3.97;;;1.30;;
43883;SDS011;29544;52.018;5.810;2023-03-01T03:09:12;1.33;;;1.10;;
43883;SDS011;29544;52.018;5.810;2023-03-01T03:11:39;2.25;;;1.20;;
43883;SDS011;29544;52.018;5.810;2023-03-01T03:14:06;2.83;;;1.60;;
43883;SDS011;29544;52.018;5.810;2023-03-01T03:16:38;1.45;;;1.10;;
43883;SDS011;29544;52.018;5.810;2023-03-01T03:19:14;1.92;;;1.30;;
43883;SDS011;29544;52.018;5.810;2023-03-01T03:21:41;1.85;;;1.20;;
43883;SDS011;29544;52.018;5.810;2023-03-01T03:24:07;2.03;;;1.30;;
43883;SDS011;29544;52.018;5.810;2023-03-01T03:26:32;2.63;;;1.33;;
43883;SDS011;29544;52.018;5.810;2023-03-01T03:28:58;1.73;;;1.37;;
43883;SDS011;29544;52.018;5.810;2023-03-01T03:31:24;1.77;;;1.20;;
43883;SDS011;29544;52.018;5.810;2023-03-01T03:33:49;2.17;;;1.47;;
43883;SDS011;29544;52.018;5.810;2023-03-01T03:36:22;1.10;;;1.00;;
43883;SDS011;29544;52.018;5.810;2023-03-01T03:38:48;2.97;;;1.10;;
43883;SDS011;29544;52.018;5.810;2023-03-01T03:41:14;2.40;;;1.20;;
43883;SDS011;29544;52.018;5.810;2023-03-01T03:43:41;2.20;;;1.33;;
43883;SDS011;29544;52.018;5.810;2023-03-01T03:46:08;1.38;;;1.17;;
43883;SDS011;29544;52.018;5.810;2023-03-01T03:48:39;1.80;;;1.30;;
43883;SDS011;29544;52.018;5.810;2023-03-01T03:51:06;2.28;;;1.35;;
43883;SDS011;29544;52.018;5.810;2023-03-01T03:53:35;2.15;;;1.30;;
43883;SDS011;29544;52.018;5.810;2023-03-01T03:56:01;2.10;;;1.47;;
43883;SDS011;29544;52.018;5.810;2023-03-01T03:58:26;1.33;;;1.23;;
43883;SDS011;29544;52.018;5.810;2023-03-01T04:00:53;2.27;;;1.33;;
43883;SDS011;29544;52.018;5.810;2023-03-01T04:03:25;2.05;;;1.30;;
43883;SDS011;29544;52.018;5.810;2023-03-01T04:05:51;2.10;;;1.35;;
43883;SDS011;29544;52.018;5.810;2023-03-01T04:08:21;2.15;;;1.30;;
43883;SDS011;29544;52.018;5.810;2023-03-01T04:10:49;2.05;;;1.30;;
43883;SDS011;29544;52.018;5.810;2023-03-01T04:13:18;2.65;;;1.20;;
43883;SDS011;29544;52.018;5.810;2023-03-01T04:15:45;1.20;;;1.10;;
43883;SDS011;29544;52.018;5.810;2023-03-01T04:18:16;3.45;;;1.42;;
43883;SDS011;29544;52.018;5.810;2023-03-01T04:20:44;1.85;;;1.08;;
43883;SDS011;29544;52.018;5.810;2023-03-01T04:23:11;2.45;;;1.58;;
43883;SDS011;29544;52.018;5.810;2023-03-01T04:28:19;1.70;;;1.17;;
43883;SDS011;29544;52.018;5.810;2023-03-01T04:30:53;2.33;;;1.65;;
43883;SDS011;29544;52.018;5.810;2023-03-01T04:33:20;1.80;;;1.27;;
43883;SDS011;29544;52.018;5.810;2023-03-01T04:35:46;1.23;;;1.02;;
43883;SDS011;29544;52.018;5.810;2023-03-01T04:38:16;2.05;;;1.52;;
43883;SDS011;29544;52.018;5.810;2023-03-01T04:40:43;2.20;;;1.60;;
43883;SDS011;29544;52.018;5.810;2023-03-01T04:43:09;3.27;;;1.23;;
43883;SDS011;29544;52.018;5.810;2023-03-01T04:45:35;2.95;;;1.73;;
43883;SDS011;29544;52.018;5.810;2023-03-01T04:48:01;1.83;;;1.17;;
43883;SDS011;29544;52.018;5.810;2023-03-01T04:50:27;1.73;;;1.08;;
43883;SDS011;29544;52.018;5.810;2023-03-01T04:52:53;2.17;;;1.43;;
43883;SDS011;29544;52.018;5.810;2023-03-01T04:55:18;2.53;;;1.53;;
43883;SDS011;29544;52.018;5.810;2023-03-01T04:57:44;1.77;;;1.40;;
43883;SDS011;29544;52.018;5.810;2023-03-01T05:00:10;3.13;;;1.90;;
43883;SDS011;29544;52.018;5.810;2023-03-01T05:05:14;2.92;;;1.33;;
43883;SDS011;29544;52.018;5.810;2023-03-01T05:07:39;1.75;;;1.20;;
43883;SDS011;29544;52.018;5.810;2023-03-01T05:10:05;2.47;;;1.40;;
43883;SDS011;29544;52.018;5.810;2023-03-01T05:12:31;3.03;;;1.30;;
43883;SDS011;29544;52.018;5.810;2023-03-01T05:14:56;4.30;;;1.70;;
43883;SDS011;29544;52.018;5.810;2023-03-01T05:17:23;1.77;;;1.40;;
43883;SDS011;29544;52.018;5.810;2023-03-01T05:19:49;2.83;;;1.80;;
43883;SDS011;29544;52.018;5.810;2023-03-01T05:22:15;2.10;;;1.50;;
43883;SDS011;29544;52.018;5.810;2023-03-01T05:24:40;2.17;;;1.40;;
43883;SDS011;29544;52.018;5.810;2023-03-01T05:27:06;3.83;;;1.77;;
43883;SDS011;29544;52.018;5.810;2023-03-01T05:29:32;3.53;;;1.60;;
43883;SDS011;29544;52.018;5.810;2023-03-01T05:32:00;2.30;;;1.35;;
43883;SDS011;29544;52.018;5.810;2023-03-01T05:36:53;2.63;;;1.83;;
43883;SDS011;29544;52.018;5.810;2023-03-01T05:39:19;2.97;;;1.90;;
43883;SDS011;29544;52.018;5.810;2023-03-01T05:41:52;3.15;;;1.95;;
43883;SDS011;29544;52.018;5.810;2023-03-01T05:44:22;5.55;;;1.77;;
43883;SDS011;29544;52.018;5.810;2023-03-01T05:46:48;3.17;;;1.50;;
43883;SDS011;29544;52.018;5.810;2023-03-01T05:49:15;2.47;;;1.50;;
43883;SDS011;29544;52.018;5.810;2023-03-01T05:51:41;2.95;;;1.88;;
43883;SDS011;29544;52.018;5.810;2023-03-01T05:54:08;4.07;;;1.73;;
43883;SDS011;29544;52.018;5.810;2023-03-01T05:56:35;2.13;;;1.70;;
43883;SDS011;29544;52.018;5.810;2023-03-01T05:59:02;4.60;;;1.75;;
43883;SDS011;29544;52.018;5.810;2023-03-01T06:01:28;2.20;;;1.40;;
43883;SDS011;29544;52.018;5.810;2023-03-01T06:03:54;3.10;;;2.00;;
43883;SDS011;29544;52.018;5.810;2023-03-01T06:06:20;3.38;;;1.77;;
43883;SDS011;29544;52.018;5.810;2023-03-01T06:08:46;2.37;;;1.57;;
43883;SDS011;29544;52.018;5.810;2023-03-01T06:11:11;4.57;;;2.30;;
43883;SDS011;29544;52.018;5.810;2023-03-01T06:13:37;1.97;;;1.40;;
43883;SDS011;29544;52.018;5.810;2023-03-01T06:16:06;2.93;;;1.67;;
43883;SDS011;29544;52.018;5.810;2023-03-01T06:18:32;2.30;;;1.50;;
43883;SDS011;29544;52.018;5.810;2023-03-01T06:20:58;2.70;;;2.00;;
43883;SDS011;29544;52.018;5.810;2023-03-01T06:23:24;3.33;;;1.83;;
43883;SDS011;29544;52.018;5.810;2023-03-01T06:25:50;3.13;;;1.77;;
43883;SDS011;29544;52.018;5.810;2023-03-01T06:28:15;2.40;;;1.60;;
43883;SDS011;29544;52.018;5.810;2023-03-01T06:30:41;3.87;;;2.00;;
43883;SDS011;29544;52.018;5.810;2023-03-01T06:33:06;2.07;;;1.67;;
43883;SDS011;29544;52.018;5.810;2023-03-01T06:35:32;3.27;;;1.50;;
43883;SDS011;29544;52.018;5.810;2023-03-01T06:37:58;2.90;;;1.60;;
43883;SDS011;29544;52.018;5.810;2023-03-01T06:40:25;3.53;;;1.95;;
43883;SDS011;29544;52.018;5.810;2023-03-01T06:42:50;2.60;;;1.90;;
43883;SDS011;29544;52.018;5.810;2023-03-01T06:45:16;2.83;;;1.70;;
43883;SDS011;29544;52.018;5.810;2023-03-01T06:47:43;2.75;;;2.03;;
43883;SDS011;29544;52.018;5.810;2023-03-01T06:50:09;2.70;;;1.60;;
43883;SDS011;29544;52.018;5.810;2023-03-01T06:52:34;2.95;;;1.75;;
43883;SDS011;29544;52.018;5.810;2023-03-01T06:55:00;5.00;;;1.90;;
43883;SDS011;29544;52.018;5.810;2023-03-01T06:57:26;4.60;;;1.93;;
43883;SDS011;29544;52.018;5.810;2023-03-01T06:59:52;3.20;;;2.03;;
43883;SDS011;29544;52.018;5.810;2023-03-01T07:02:18;4.97;;;2.43;;
43883;SDS011;29544;52.018;5.810;2023-03-01T07:04:43;6.03;;;2.23;;
43883;SDS011;29544;52.018;5.810;2023-03-01T07:07:09;2.90;;;2.30;;
43883;SDS011;29544;52.018;5.810;2023-03-01T07:09:35;3.17;;;2.13;;
43883;SDS011;29544;52.018;5.810;2023-03-01T07:12:00;3.33;;;2.00;;
43883;SDS011;29544;52.018;5.810;2023-03-01T07:14:26;3.03;;;2.10;;
43883;SDS011;29544;52.018;5.810;2023-03-01T07:16:53;3.53;;;2.30;;
43883;SDS011;29544;52.018;5.810;2023-03-01T07:19:19;3.63;;;2.30;;
43883;SDS011;29544;52.018;5.810;2023-03-01T07:21:45;4.32;;;1.95;;
43883;SDS011;29544;52.018;5.810;2023-03-01T07:24:11;6.73;;;2.47;;
43883;SDS011;29544;52.018;5.810;2023-03-01T07:26:36;3.23;;;2.10;;
43883;SDS011;29544;52.018;5.810;2023-03-01T07:29:03;2.97;;;1.97;;
43883;SDS011;29544;52.018;5.810;2023-03-01T07:31:29;3.35;;;1.80;;
43883;SDS011;29544;52.018;5.810;2023-03-01T07:33:55;12.50;;;2.37;;
43883;SDS011;29544;52.018;5.810;2023-03-01T07:36:21;8.25;;;2.10;;
43883;SDS011;29544;52.018;5.810;2023-03-01T07:38:49;4.88;;;2.10;;
43883;SDS011;29544;52.018;5.810;2023-03-01T07:41:14;4.93;;;2.73;;
43883;SDS011;29544;52.018;5.810;2023-03-01T07:43:40;3.97;;;2.50;;
43883;SDS011;29544;52.018;5.810;2023-03-01T07:46:06;2.53;;;1.80;;
43883;SDS011;29544;52.018;5.810;2023-03-01T07:48:32;3.50;;;2.10;;
43883;SDS011;29544;52.018;5.810;2023-03-01T07:50:59;3.85;;;2.20;;
43883;SDS011;29544;52.018;5.810;2023-03-01T07:53:28;4.55;;;2.40;;
43883;SDS011;29544;52.018;5.810;2023-03-01T07:56:09;2.92;;;2.05;;
43883;SDS011;29544;52.018;5.810;2023-03-01T07:58:36;3.50;;;2.15;;
43883;SDS011;29544;52.018;5.810;2023-03-01T08:01:05;5.75;;;2.10;;
43883;SDS011;29544;52.018;5.810;2023-03-01T08:03:32;4.05;;;2.42;;
43883;SDS011;29544;52.018;5.810;2023-03-01T08:06:01;3.78;;;2.38;;
43883;SDS011;29544;52.018;5.810;2023-03-01T08:08:28;5.47;;;2.22;;
43883;SDS011;29544;52.018;5.810;2023-03-01T08:10:58;4.28;;;2.42;;
43883;SDS011;29544;52.018;5.810;2023-03-01T08:13:25;3.50;;;2.40;;
43883;SDS011;29544;52.018;5.810;2023-03-01T08:15:51;5.47;;;2.10;;
43883;SDS011;29544;52.018;5.810;2023-03-01T08:18:18;4.97;;;2.55;;
43883;SDS011;29544;52.018;5.810;2023-03-01T08:20:44;5.53;;;2.55;;
43883;SDS011;29544;52.018;5.810;2023-03-01T08:23:10;3.83;;;2.20;;
43883;SDS011;29544;52.018;5.810;2023-03-01T08:25:36;3.05;;;2.10;;
43883;SDS011;29544;52.018;5.810;2023-03-01T08:28:02;4.13;;;2.38;;
43883;SDS011;29544;52.018;5.810;2023-03-01T08:30:28;3.93;;;2.20;;
43883;SDS011;29544;52.018;5.810;2023-03-01T08:32:53;2.90;;;1.97;;
43883;SDS011;29544;52.018;5.810;2023-03-01T08:35:19;5.20;;;2.33;;
43883;SDS011;29544;52.018;5.810;2023-03-01T08:37:45;4.40;;;2.03;;
43883;SDS011;29544;52.018;5.810;2023-03-01T08:40:11;5.63;;;2.10;;
43883;SDS011;29544;52.018;5.810;2023-03-01T08:42:38;3.50;;;2.00;;
43883;SDS011;29544;52.018;5.810;2023-03-01T08:45:05;4.13;;;2.08;;
43883;SDS011;29544;52.018;5.810;2023-03-01T08:47:31;2.75;;;1.90;;
43883;SDS011;29544;52.018;5.810;2023-03-01T08:49:58;4.05;;;2.15;;
43883;SDS011;29544;52.018;5.810;2023-03-01T08:52:24;2.38;;;1.80;;
43883;SDS011;29544;52.018;5.810;2023-03-01T08:54:50;4.53;;;2.13;;
43883;SDS011;29544;52.018;5.810;2023-03-01T08:57:16;3.90;;;2.37;;
43883;SDS011;29544;52.018;5.810;2023-03-01T08:59:42;3.37;;;1.67;;
43883;SDS011;29544;52.018;5.810;2023-03-01T09:02:15;3.23;;;1.87;;
43883;SDS011;29544;52.018;5.810;2023-03-01T09:04:41;3.80;;;2.05;;
43883;SDS011;29544;52.018;5.810;2023-03-01T09:07:07;3.27;;;2.13;;
43883;SDS011;29544;52.018;5.810;2023-03-01T09:09:34;2.75;;;1.77;;
43883;SDS011;29544;52.018;5.810;2023-03-01T09:11:59;3.13;;;2.00;;
43883;SDS011;29544;52.018;5.810;2023-03-01T09:14:26;2.63;;;1.70;;
43883;SDS011;29544;52.018;5.810;2023-03-01T09:16:51;3.43;;;2.13;;
43883;SDS011;29544;52.018;5.810;2023-03-01T09:19:17;2.97;;;2.00;;
43883;SDS011;29544;52.018;5.810;2023-03-01T09:21:42;3.20;;;2.10;;
43883;SDS011;29544;52.018;5.810;2023-03-01T09:24:17;3.78;;;1.80;;
43883;SDS011;29544;52.018;5.810;2023-03-01T09:26:45;3.60;;;1.90;;
43883;SDS011;29544;52.018;5.810;2023-03-01T09:29:11;4.20;;;1.93;;
43883;SDS011;29544;52.018;5.810;2023-03-01T09:31:38;2.15;;;1.48;;
43883;SDS011;29544;52.018;5.810;2023-03-01T09:34:04;3.25;;;1.70;;
43883;SDS011;29544;52.018;5.810;2023-03-01T09:36:30;3.00;;;1.63;;
43883;SDS011;29544;52.018;5.810;2023-03-01T09:38:57;3.38;;;1.77;;
43883;SDS011;29544;52.018;5.810;2023-03-01T09:47:18;1.88;;;1.42;;
43883;SDS011;29544;52.018;5.810;2023-03-01T09:49:56;2.67;;;1.60;;
43883;SDS011;29544;52.018;5.810;2023-03-01T09:55:25;2.53;;;1.55;;
43883;SDS011;29544;52.018;5.810;2023-03-01T09:57:55;2.63;;;1.65;;
43883;SDS011;29544;52.018;5.810;2023-03-01T10:02:57;4.63;;;1.83;;
43883;SDS011;29544;52.018;5.810;2023-03-01T10:10:39;2.83;;;1.60;;
43883;SDS011;29544;52.018;5.810;2023-03-01T10:13:10;2.13;;;1.30;;
43883;SDS011;29544;52.018;5.810;2023-03-01T10:16:31;2.13;;;1.20;;
43883;SDS011;29544;52.018;5.810;2023-03-01T10:18:38;2.13;;;1.40;;
43883;SDS011;29544;52.018;5.810;2023-03-01T10:21:16;4.10;;;1.60;;
43883;SDS011;29544;52.018;5.810;2023-03-01T10:23:44;2.92;;;1.58;;
43883;SDS011;29544;52.018;5.810;2023-03-01T10:26:17;2.53;;;1.42;;
43883;SDS011;29544;52.018;5.810;2023-03-01T10:31:28;3.80;;;1.75;;
43883;SDS011;29544;52.018;5.810;2023-03-01T10:34:18;2.95;;;1.45;;
43883;SDS011;29544;52.018;5.810;2023-03-01T10:36:53;3.88;;;1.45;;
43883;SDS011;29544;52.018;5.810;2023-03-01T10:39:34;2.72;;;1.48;;
43883;SDS011;29544;52.018;5.810;2023-03-01T10:42:00;2.57;;;1.20;;
43883;SDS011;29544;52.018;5.810;2023-03-01T10:44:41;2.25;;;1.33;;
43883;SDS011;29544;52.018;5.810;2023-03-01T10:47:19;2.40;;;1.38;;
43883;SDS011;29544;52.018;5.810;2023-03-01T10:49:57;4.25;;;1.38;;
43883;SDS011;29544;52.018;5.810;2023-03-01T10:52:27;2.30;;;1.58;;
43883;SDS011;29544;52.018;5.810;2023-03-01T10:57:38;2.95;;;1.70;;
43883;SDS011;29544;52.018;5.810;2023-03-01T11:02:46;2.17;;;1.35;;
43883;SDS011;29544;52.018;5.810;2023-03-01T11:05:26;2.00;;;1.33;;
43883;SDS011;29544;52.018;5.810;2023-03-01T11:07:55;2.45;;;1.25;;
43883;SDS011;29544;52.018;5.810;2023-03-01T11:10:24;2.30;;;1.13;;
43883;SDS011;29544;52.018;5.810;2023-03-01T11:12:53;1.98;;;1.23;;
43883;SDS011;29544;52.018;5.810;2023-03-01T11:17:55;2.15;;;1.27;;
43883;SDS011;29544;52.018;5.810;2023-03-01T11:20:25;3.90;;;1.30;;
43883;SDS011;29544;52.018;5.810;2023-03-01T11:22:57;2.70;;;1.52;;
43883;SDS011;29544;52.018;5.810;2023-03-01T11:25:32;3.95;;;1.40;;
43883;SDS011;29544;52.018;5.810;2023-03-01T11:28:03;1.52;;;1.30;;
43883;SDS011;29544;52.018;5.810;2023-03-01T11:30:35;1.77;;;1.38;;
43883;SDS011;29544;52.018;5.810;2023-03-01T11:35:33;2.92;;;1.20;;
43883;SDS011;29544;52.018;5.810;2023-03-01T11:38:05;4.47;;;1.30;;
43883;SDS011;29544;52.018;5.810;2023-03-01T11:40:46;4.45;;;1.25;;
43883;SDS011;29544;52.018;5.810;2023-03-01T11:46:11;3.10;;;1.27;;
43883;SDS011;29544;52.018;5.810;2023-03-01T11:48:53;6.10;;;1.35;;
43883;SDS011;29544;52.018;5.810;2023-03-01T11:51:33;3.63;;;1.27;;
43883;SDS011;29544;52.018;5.810;2023-03-01T11:56:55;4.85;;;1.27;;
43883;SDS011;29544;52.018;5.810;2023-03-01T12:08:03;2.40;;;1.33;;
43883;SDS011;29544;52.018;5.810;2023-03-01T12:13:23;3.97;;;1.52;;
43883;SDS011;29544;52.018;5.810;2023-03-01T12:21:23;4.60;;;1.30;;
43883;SDS011;29544;52.018;5.810;2023-03-01T12:24:31;3.17;;;1.20;;
43883;SDS011;29544;52.018;5.810;2023-03-01T12:32:39;2.93;;;1.10;;
43883;SDS011;29544;52.018;5.810;2023-03-01T12:38:06;3.70;;;1.17;;
43883;SDS011;29544;52.018;5.810;2023-03-01T12:41:04;1.88;;;1.00;;
43883;SDS011;29544;52.018;5.810;2023-03-01T12:51:53;2.03;;;1.20;;
43883;SDS011;29544;52.018;5.810;2023-03-01T12:54:33;6.72;;;1.40;;
43883;SDS011;29544;52.018;5.810;2023-03-01T12:57:12;7.47;;;1.30;;
43883;SDS011;29544;52.018;5.810;2023-03-01T13:00:01;2.17;;;1.02;;
43883;SDS011;29544;52.018;5.810;2023-03-01T13:02:52;2.70;;;1.10;;
43883;SDS011;29544;52.018;5.810;2023-03-01T13:08:08;4.50;;;1.50;;
43883;SDS011;29544;52.018;5.810;2023-03-01T13:10:58;2.47;;;1.13;;
43883;SDS011;29544;52.018;5.810;2023-03-01T13:13:30;2.63;;;0.90;;
43883;SDS011;29544;52.018;5.810;2023-03-01T13:15:57;6.13;;;1.45;;
43883;SDS011;29544;52.018;5.810;2023-03-01T13:18:42;2.50;;;1.20;;
43883;SDS011;29544;52.018;5.810;2023-03-01T13:21:08;2.70;;;1.37;;
43883;SDS011;29544;52.018;5.810;2023-03-01T13:23:35;3.00;;;1.50;;
43883;SDS011;29544;52.018;5.810;2023-03-01T13:31:07;2.08;;;1.25;;
43883;SDS011;29544;52.018;5.810;2023-03-01T13:33:44;4.72;;;1.40;;
43883;SDS011;29544;52.018;5.810;2023-03-01T13:39:00;3.80;;;1.50;;
43883;SDS011;29544;52.018;5.810;2023-03-01T13:46:59;3.42;;;1.35;;
43883;SDS011;29544;52.018;5.810;2023-03-01T13:49:48;2.58;;;1.58;;
43883;SDS011;29544;52.018;5.810;2023-03-01T13:55:02;2.72;;;1.50;;
43883;SDS011;29544;52.018;5.810;2023-03-01T13:57:42;8.88;;;1.20;;
43883;SDS011;29544;52.018;5.810;2023-03-01T14:00:33;3.58;;;1.50;;
43883;SDS011;29544;52.018;5.810;2023-03-01T14:03:16;1.55;;;1.10;;
43883;SDS011;29544;52.018;5.810;2023-03-01T14:05:57;3.08;;;1.48;;
43883;SDS011;29544;52.018;5.810;2023-03-01T14:08:24;2.35;;;1.33;;
43883;SDS011;29544;52.018;5.810;2023-03-01T14:10:54;2.97;;;1.38;;
43883;SDS011;29544;52.018;5.810;2023-03-01T14:19:24;2.50;;;1.38;;
43883;SDS011;29544;52.018;5.810;2023-03-01T14:24:55;8.10;;;1.33;;
43883;SDS011;29544;52.018;5.810;2023-03-01T14:27:25;1.58;;;1.10;;
43883;SDS011;29544;52.018;5.810;2023-03-01T14:29:54;2.05;;;1.17;;
43883;SDS011;29544;52.018;5.810;2023-03-01T14:32:23;4.00;;;1.35;;
43883;SDS011;29544;52.018;5.810;2023-03-01T14:34:51;3.53;;;1.30;;
43883;SDS011;29544;52.018;5.810;2023-03-01T14:37:21;2.33;;;1.23;;
43883;SDS011;29544;52.018;5.810;2023-03-01T14:39:52;3.45;;;1.40;;
43883;SDS011;29544;52.018;5.810;2023-03-01T14:42:18;2.25;;;1.15;;
43883;SDS011;29544;52.018;5.810;2023-03-01T14:44:47;4.15;;;1.27;;
43883;SDS011;29544;52.018;5.810;2023-03-01T14:47:16;2.33;;;1.40;;
43883;SDS011;29544;52.018;5.810;2023-03-01T14:49:48;2.72;;;1.50;;
43883;SDS011;29544;52.018;5.810;2023-03-01T14:52:20;3.28;;;1.20;;
43883;SDS011;29544;52.018;5.810;2023-03-01T14:54:48;4.63;;;1.42;;
43883;SDS011;29544;52.018;5.810;2023-03-01T14:57:18;2.67;;;1.42;;
43883;SDS011;29544;52.018;5.810;2023-03-01T14:59:48;3.92;;;1.20;;
43883;SDS011;29544;52.018;5.810;2023-03-01T15:02:19;2.95;;;1.60;;
43883;SDS011;29544;52.018;5.810;2023-03-01T15:04:49;7.38;;;1.50;;
43883;SDS011;29544;52.018;5.810;2023-03-01T15:07:21;6.63;;;1.60;;
43883;SDS011;29544;52.018;5.810;2023-03-01T15:09:51;3.53;;;1.90;;
43883;SDS011;29544;52.018;5.810;2023-03-01T15:15:18;3.22;;;1.83;;
43883;SDS011;29544;52.018;5.810;2023-03-01T15:17:55;3.75;;;1.30;;
43883;SDS011;29544;52.018;5.810;2023-03-01T15:20:24;3.15;;;1.45;;
43883;SDS011;29544;52.018;5.810;2023-03-01T15:22:54;2.63;;;1.30;;
43883;SDS011;29544;52.018;5.810;2023-03-01T15:25:22;3.33;;;1.42;;
43883;SDS011;29544;52.018;5.810;2023-03-01T15:27:51;4.57;;;1.50;;
43883;SDS011;29544;52.018;5.810;2023-03-01T15:30:21;3.95;;;1.30;;
43883;SDS011;29544;52.018;5.810;2023-03-01T15:33:15;3.95;;;1.25;;
43883;SDS011;29544;52.018;5.810;2023-03-01T15:35:50;5.60;;;1.83;;
43883;SDS011;29544;52.018;5.810;2023-03-01T15:38:28;7.22;;;1.70;;
43883;SDS011;29544;52.018;5.810;2023-03-01T15:40:57;3.50;;;1.13;;
43883;SDS011;29544;52.018;5.810;2023-03-01T15:43:38;4.03;;;1.35;;
43883;SDS011;29544;52.018;5.810;2023-03-01T15:46:31;4.15;;;1.30;;
43883;SDS011;29544;52.018;5.810;2023-03-01T15:49:00;4.70;;;1.73;;
43883;SDS011;29544;52.018;5.810;2023-03-01T15:51:32;4.45;;;1.30;;
43883;SDS011;29544;52.018;5.810;2023-03-01T15:54:01;6.70;;;1.45;;
43883;SDS011;29544;52.018;5.810;2023-03-01T15:56:32;3.53;;;1.30;;
43883;SDS011;29544;52.018;5.810;2023-03-01T15:58:59;2.70;;;1.33;;
43883;SDS011;29544;52.018;5.810;2023-03-01T16:01:26;3.40;;;1.63;;
43883;SDS011;29544;52.018;5.810;2023-03-01T16:03:52;7.05;;;1.85;;
43883;SDS011;29544;52.018;5.810;2023-03-01T16:06:19;2.85;;;1.20;;
43883;SDS011;29544;52.018;5.810;2023-03-01T16:08:44;4.93;;;1.93;;
43883;SDS011;29544;52.018;5.810;2023-03-01T16:11:13;3.20;;;1.20;;
43883;SDS011;29544;52.018;5.810;2023-03-01T16:13:43;4.38;;;1.55;;
43883;SDS011;29544;52.018;5.810;2023-03-01T16:16:10;1.70;;;1.20;;
43883;SDS011;29544;52.018;5.810;2023-03-01T16:18:39;2.40;;;1.00;;
43883;SDS011;29544;52.018;5.810;2023-03-01T16:21:05;2.33;;;1.10;;
43883;SDS011;29544;52.018;5.810;2023-03-01T16:23:31;4.10;;;1.43;;
43883;SDS011;29544;52.018;5.810;2023-03-01T16:26:00;4.60;;;1.37;;
43883;SDS011;29544;52.018;5.810;2023-03-01T16:28:25;4.05;;;1.67;;
43883;SDS011;29544;52.018;5.810;2023-03-01T16:30:51;1.60;;;1.00;;
43883;SDS011;29544;52.018;5.810;2023-03-01T16:33:17;1.40;;;0.90;;
43883;SDS011;29544;52.018;5.810;2023-03-01T16:35:42;1.97;;;1.17;;
43883;SDS011;29544;52.018;5.810;2023-03-01T16:38:08;3.58;;;1.23;;
43883;SDS011;29544;52.018;5.810;2023-03-01T16:40:35;3.90;;;2.05;;
43883;SDS011;29544;52.018;5.810;2023-03-01T16:43:00;2.90;;;1.25;;
43883;SDS011;29544;52.018;5.810;2023-03-01T16:45:27;1.90;;;1.10;;
43883;SDS011;29544;52.018;5.810;2023-03-01T16:47:57;1.10;;;0.98;;
43883;SDS011;29544;52.018;5.810;2023-03-01T16:50:23;2.78;;;1.23;;
43883;SDS011;29544;52.018;5.810;2023-03-01T16:52:48;2.17;;;1.27;;
43883;SDS011;29544;52.018;5.810;2023-03-01T16:55:14;2.23;;;1.50;;
43883;SDS011;29544;52.018;5.810;2023-03-01T16:57:39;1.17;;;0.80;;
43883;SDS011;29544;52.018;5.810;2023-03-01T17:00:05;1.95;;;1.30;;
43883;SDS011;29544;52.018;5.810;2023-03-01T17:02:34;2.40;;;1.05;;